sensor_id;sensor_type;location;lat;lon;timestamp;P1;durP1;ratioP1;P2;durP2;ratioP2
23119;SDS011;11729;50.836;4.330;2023-02-15T00:00:20;124.60;;;69.65;;
23119;SDS011;11729;50.836;4.330;2023-02-15T00:02:47;119.78;;;67.40;;
23119;SDS011;11729;50.836;4.330;2023-02-15T00:05:13;121.60;;;68.40;;
23119;SDS011;11729;50.836;4.330;2023-02-15T00:07:38;118.68;;;67.55;;
23119;SDS011;11729;50.836;4.330;2023-02-15T00:10:04;116.53;;;65.10;;
23119;SDS011;11729;50.836;4.330;2023-02-15T00:12:31;118.65;;;65.45;;
23119;SDS011;11729;50.836;4.330;2023-02-15T00:14:56;120.65;;;67.13;;
23119;SDS011;11729;50.836;4.330;2023-02-15T00:17:22;127.93;;;70.25;;
23119;SDS011;11729;50.836;4.330;2023-02-15T00:19:47;125.75;;;68.75;;
23119;SDS011;11729;50.836;4.330;2023-02-15T00:22:13;127.00;;;68.95;;
23119;SDS011;11729;50.836;4.330;2023-02-15T00:24:40;115.80;;;67.10;;
23119;SDS011;11729;50.836;4.330;2023-02-15T00:27:06;124.05;;;68.80;;
23119;SDS011;11729;50.836;4.330;2023-02-15T00:29:31;126.97;;;68.82;;
23119;SDS011;11729;50.836;4.330;2023-02-15T00:31:57;131.57;;;70.15;;
23119;SDS011;11729;50.836;4.330;2023-02-15T00:34:23;119.07;;;66.00;;
23119;SDS011;11729;50.836;4.330;2023-02-15T00:36:50;122.25;;;69.10;;
23119;SDS011;11729;50.836;4.330;2023-02-15T00:39:16;120.32;;;68.00;;
23119;SDS011;11729;50.836;4.330;2023-02-15T00:41:42;126.10;;;68.80;;
23119;SDS011;11729;50.836;4.330;2023-02-15T00:44:08;120.68;;;68.07;;
23119;SDS011;11729;50.836;4.330;2023-02-15T00:46:34;121.93;;;67.78;;
23119;SDS011;11729;50.836;4.330;2023-02-15T00:49:00;121.18;;;69.25;;
23119;SDS011;11729;50.836;4.330;2023-02-15T00:51:26;115.07;;;66.00;;
23119;SDS011;11729;50.836;4.330;2023-02-15T00:53:51;124.13;;;67.55;;
23119;SDS011;11729;50.836;4.330;2023-02-15T00:56:17;121.68;;;67.35;;
23119;SDS011;11729;50.836;4.330;2023-02-15T00:58:43;121.07;;;67.60;;
23119;SDS011;11729;50.836;4.330;2023-02-15T01:01:13;129.30;;;70.43;;
23119;SDS011;11729;50.836;4.330;2023-02-15T01:03:44;126.47;;;66.45;;
23119;SDS011;11729;50.836;4.330;2023-02-15T01:06:11;128.90;;;67.60;;
23119;SDS011;11729;50.836;4.330;2023-02-15T01:08:38;127.22;;;69.35;;
23119;SDS011;11729;50.836;4.330;2023-02-15T01:11:04;123.35;;;69.15;;
23119;SDS011;11729;50.836;4.330;2023-02-15T01:13:32;122.55;;;68.25;;
23119;SDS011;11729;50.836;4.330;2023-02-15T01:15:58;117.15;;;66.95;;
23119;SDS011;11729;50.836;4.330;2023-02-15T01:18:23;121.70;;;67.57;;
23119;SDS011;11729;50.836;4.330;2023-02-15T01:20:49;118.78;;;67.60;;
23119;SDS011;11729;50.836;4.330;2023-02-15T01:23:14;113.90;;;65.80;;
23119;SDS011;11729;50.836;4.330;2023-02-15T01:25:40;115.25;;;66.18;;
23119;SDS011;11729;50.836;4.330;2023-02-15T01:28:06;114.60;;;66.90;;
23119;SDS011;11729;50.836;4.330;2023-02-15T01:30:32;116.85;;;65.97;;
23119;SDS011;11729;50.836;4.330;2023-02-15T01:32:57;128.20;;;69.18;;
23119;SDS011;11729;50.836;4.330;2023-02-15T01:35:23;127.57;;;69.20;;
23119;SDS011;11729;50.836;4.330;2023-02-15T01:37:49;123.90;;;70.50;;
23119;SDS011;11729;50.836;4.330;2023-02-15T01:40:15;119.70;;;68.55;;
23119;SDS011;11729;50.836;4.330;2023-02-15T01:42:42;127.32;;;69.85;;
23119;SDS011;11729;50.836;4.330;2023-02-15T01:50:47;120.70;;;65.82;;
23119;SDS011;11729;50.836;4.330;2023-02-15T01:53:30;128.82;;;67.38;;
23119;SDS011;11729;50.836;4.330;2023-02-15T01:56:03;118.82;;;65.68;;
23119;SDS011;11729;50.836;4.330;2023-02-15T01:58:34;121.85;;;66.18;;
23119;SDS011;11729;50.836;4.330;2023-02-15T02:01:01;115.13;;;66.55;;
23119;SDS011;11729;50.836;4.330;2023-02-15T02:06:08;118.07;;;65.20;;
23119;SDS011;11729;50.836;4.330;2023-02-15T02:08:34;125.22;;;68.93;;
23119;SDS011;11729;50.836;4.330;2023-02-15T02:11:00;113.60;;;63.83;;
23119;SDS011;11729;50.836;4.330;2023-02-15T02:13:26;120.75;;;66.07;;
23119;SDS011;11729;50.836;4.330;2023-02-15T02:24:29;121.75;;;65.30;;
23119;SDS011;11729;50.836;4.330;2023-02-15T02:36:23;120.57;;;60.95;;
23119;SDS011;11729;50.836;4.330;2023-02-15T02:39:23;116.57;;;63.08;;
23119;SDS011;11729;50.836;4.330;2023-02-15T02:42:39;113.97;;;62.13;;
23119;SDS011;11729;50.836;4.330;2023-02-15T02:45:24;116.30;;;61.88;;
23119;SDS011;11729;50.836;4.330;2023-02-15T02:48:03;112.03;;;62.08;;
23119;SDS011;11729;50.836;4.330;2023-02-15T02:50:34;104.50;;;60.90;;
23119;SDS011;11729;50.836;4.330;2023-02-15T02:52:59;119.72;;;64.18;;
23119;SDS011;11729;50.836;4.330;2023-02-15T02:55:27;117.63;;;63.55;;
23119;SDS011;11729;50.836;4.330;2023-02-15T02:58:11;120.32;;;63.97;;
23119;SDS011;11729;50.836;4.330;2023-02-15T03:00:48;116.22;;;62.55;;
23119;SDS011;11729;50.836;4.330;2023-02-15T03:03:56;121.30;;;65.57;;
23119;SDS011;11729;50.836;4.330;2023-02-15T03:09:27;112.72;;;62.20;;
23119;SDS011;11729;50.836;4.330;2023-02-15T03:11:59;119.32;;;62.50;;
23119;SDS011;11729;50.836;4.330;2023-02-15T03:14:28;122.15;;;64.60;;
23119;SDS011;11729;50.836;4.330;2023-02-15T03:16:54;114.57;;;65.65;;
23119;SDS011;11729;50.836;4.330;2023-02-15T03:19:22;113.15;;;62.13;;
23119;SDS011;11729;50.836;4.330;2023-02-15T03:21:56;121.07;;;63.80;;
23119;SDS011;11729;50.836;4.330;2023-02-15T03:24:56;112.10;;;61.40;;
23119;SDS011;11729;50.836;4.330;2023-02-15T03:27:27;108.15;;;60.28;;
23119;SDS011;11729;50.836;4.330;2023-02-15T03:30:03;112.80;;;60.90;;
23119;SDS011;11729;50.836;4.330;2023-02-15T03:32:49;111.05;;;62.63;;
23119;SDS011;11729;50.836;4.330;2023-02-15T03:35:16;113.53;;;64.47;;
23119;SDS011;11729;50.836;4.330;2023-02-15T03:37:46;117.97;;;64.32;;
23119;SDS011;11729;50.836;4.330;2023-02-15T03:43:35;119.95;;;67.45;;
23119;SDS011;11729;50.836;4.330;2023-02-15T03:48:47;132.00;;;68.20;;
23119;SDS011;11729;50.836;4.330;2023-02-15T03:51:18;122.68;;;67.35;;
23119;SDS011;11729;50.836;4.330;2023-02-15T03:54:03;126.93;;;67.18;;
23119;SDS011;11729;50.836;4.330;2023-02-15T03:57:11;129.35;;;65.20;;
23119;SDS011;11729;50.836;4.330;2023-02-15T04:00:00;118.93;;;68.82;;
23119;SDS011;11729;50.836;4.330;2023-02-15T04:05:36;131.40;;;68.05;;
23119;SDS011;11729;50.836;4.330;2023-02-15T04:08:02;131.57;;;69.28;;
23119;SDS011;11729;50.836;4.330;2023-02-15T04:10:28;137.07;;;69.10;;
23119;SDS011;11729;50.836;4.330;2023-02-15T04:13:12;136.98;;;70.43;;
23119;SDS011;11729;50.836;4.330;2023-02-15T04:15:37;129.98;;;70.25;;
23119;SDS011;11729;50.836;4.330;2023-02-15T04:18:21;129.57;;;70.18;;
23119;SDS011;11729;50.836;4.330;2023-02-15T04:21:05;125.65;;;69.43;;
23119;SDS011;11729;50.836;4.330;2023-02-15T04:23:49;123.10;;;67.18;;
23119;SDS011;11729;50.836;4.330;2023-02-15T04:26:33;129.68;;;63.88;;
23119;SDS011;11729;50.836;4.330;2023-02-15T04:28:59;121.43;;;67.40;;
23119;SDS011;11729;50.836;4.330;2023-02-15T04:31:25;119.82;;;62.53;;
23119;SDS011;11729;50.836;4.330;2023-02-15T04:33:50;115.40;;;60.80;;
23119;SDS011;11729;50.836;4.330;2023-02-15T04:36:16;115.18;;;58.13;;
23119;SDS011;11729;50.836;4.330;2023-02-15T04:38:41;117.00;;;58.85;;
23119;SDS011;11729;50.836;4.330;2023-02-15T04:41:07;104.20;;;55.88;;
23119;SDS011;11729;50.836;4.330;2023-02-15T04:43:33;112.72;;;56.15;;
23119;SDS011;11729;50.836;4.330;2023-02-15T04:45:59;104.78;;;57.20;;
23119;SDS011;11729;50.836;4.330;2023-02-15T04:48:24;100.63;;;58.00;;
23119;SDS011;11729;50.836;4.330;2023-02-15T04:50:50;106.78;;;56.03;;
23119;SDS011;11729;50.836;4.330;2023-02-15T04:53:16;96.75;;;56.15;;
23119;SDS011;11729;50.836;4.330;2023-02-15T04:55:43;99.20;;;55.63;;
23119;SDS011;11729;50.836;4.330;2023-02-15T04:58:08;104.32;;;56.70;;
23119;SDS011;11729;50.836;4.330;2023-02-15T05:00:34;104.15;;;56.78;;
23119;SDS011;11729;50.836;4.330;2023-02-15T05:02:59;112.28;;;59.08;;
23119;SDS011;11729;50.836;4.330;2023-02-15T05:05:26;104.63;;;57.67;;
23119;SDS011;11729;50.836;4.330;2023-02-15T05:07:52;103.65;;;59.25;;
23119;SDS011;11729;50.836;4.330;2023-02-15T05:10:17;106.47;;;58.92;;
23119;SDS011;11729;50.836;4.330;2023-02-15T05:12:43;112.95;;;56.97;;
23119;SDS011;11729;50.836;4.330;2023-02-15T05:15:09;108.72;;;58.30;;
23119;SDS011;11729;50.836;4.330;2023-02-15T05:17:35;105.60;;;58.38;;
23119;SDS011;11729;50.836;4.330;2023-02-15T05:20:01;107.22;;;58.80;;
23119;SDS011;11729;50.836;4.330;2023-02-15T05:22:28;103.22;;;57.78;;
23119;SDS011;11729;50.836;4.330;2023-02-15T05:24:53;106.50;;;59.75;;
23119;SDS011;11729;50.836;4.330;2023-02-15T05:27:37;108.97;;;59.70;;
23119;SDS011;11729;50.836;4.330;2023-02-15T05:30:21;115.72;;;59.45;;
23119;SDS011;11729;50.836;4.330;2023-02-15T05:32:48;109.20;;;61.45;;
23119;SDS011;11729;50.836;4.330;2023-02-15T05:35:14;108.22;;;58.72;;
23119;SDS011;11729;50.836;4.330;2023-02-15T05:37:40;113.15;;;60.75;;
23119;SDS011;11729;50.836;4.330;2023-02-15T05:40:07;103.57;;;57.83;;
23119;SDS011;11729;50.836;4.330;2023-02-15T05:42:33;111.43;;;59.30;;
23119;SDS011;11729;50.836;4.330;2023-02-15T05:45:00;108.97;;;59.65;;
23119;SDS011;11729;50.836;4.330;2023-02-15T05:47:28;116.10;;;60.13;;
23119;SDS011;11729;50.836;4.330;2023-02-15T05:49:54;110.20;;;58.83;;
23119;SDS011;11729;50.836;4.330;2023-02-15T05:52:19;106.95;;;59.75;;
23119;SDS011;11729;50.836;4.330;2023-02-15T05:54:45;116.93;;;59.10;;
23119;SDS011;11729;50.836;4.330;2023-02-15T05:57:10;103.78;;;58.75;;
23119;SDS011;11729;50.836;4.330;2023-02-15T05:59:36;111.30;;;59.08;;
23119;SDS011;11729;50.836;4.330;2023-02-15T06:02:01;110.03;;;57.67;;
23119;SDS011;11729;50.836;4.330;2023-02-15T06:04:27;103.45;;;58.22;;
23119;SDS011;11729;50.836;4.330;2023-02-15T06:06:53;107.75;;;59.72;;
23119;SDS011;11729;50.836;4.330;2023-02-15T06:09:18;109.63;;;59.70;;
23119;SDS011;11729;50.836;4.330;2023-02-15T06:11:45;109.35;;;58.78;;
23119;SDS011;11729;50.836;4.330;2023-02-15T06:14:11;121.72;;;59.63;;
23119;SDS011;11729;50.836;4.330;2023-02-15T06:16:37;110.82;;;60.05;;
23119;SDS011;11729;50.836;4.330;2023-02-15T06:19:02;110.00;;;58.80;;
23119;SDS011;11729;50.836;4.330;2023-02-15T06:21:29;126.07;;;62.40;;
23119;SDS011;11729;50.836;4.330;2023-02-15T06:23:55;112.57;;;62.05;;
23119;SDS011;11729;50.836;4.330;2023-02-15T06:26:21;119.68;;;59.50;;
23119;SDS011;11729;50.836;4.330;2023-02-15T06:28:47;120.30;;;62.15;;
23119;SDS011;11729;50.836;4.330;2023-02-15T06:31:12;114.00;;;59.88;;
23119;SDS011;11729;50.836;4.330;2023-02-15T06:33:38;104.05;;;57.85;;
23119;SDS011;11729;50.836;4.330;2023-02-15T06:36:04;123.32;;;60.85;;
23119;SDS011;11729;50.836;4.330;2023-02-15T06:38:30;123.28;;;60.55;;
23119;SDS011;11729;50.836;4.330;2023-02-15T06:40:56;123.18;;;60.70;;
23119;SDS011;11729;50.836;4.330;2023-02-15T06:43:21;118.90;;;59.80;;
23119;SDS011;11729;50.836;4.330;2023-02-15T06:45:47;118.07;;;59.30;;
23119;SDS011;11729;50.836;4.330;2023-02-15T06:48:13;119.82;;;58.97;;
23119;SDS011;11729;50.836;4.330;2023-02-15T06:50:39;121.45;;;58.05;;
23119;SDS011;11729;50.836;4.330;2023-02-15T06:53:05;106.57;;;59.00;;
23119;SDS011;11729;50.836;4.330;2023-02-15T06:55:31;116.45;;;58.90;;
23119;SDS011;11729;50.836;4.330;2023-02-15T06:57:57;114.22;;;59.60;;
23119;SDS011;11729;50.836;4.330;2023-02-15T07:00:23;111.57;;;60.88;;
23119;SDS011;11729;50.836;4.330;2023-02-15T07:02:54;111.22;;;60.13;;
23119;SDS011;11729;50.836;4.330;2023-02-15T07:05:22;118.72;;;61.10;;
23119;SDS011;11729;50.836;4.330;2023-02-15T07:07:48;124.93;;;60.47;;
23119;SDS011;11729;50.836;4.330;2023-02-15T07:10:14;112.43;;;60.90;;
23119;SDS011;11729;50.836;4.330;2023-02-15T07:12:40;114.03;;;59.58;;
23119;SDS011;11729;50.836;4.330;2023-02-15T07:15:13;112.75;;;59.75;;
23119;SDS011;11729;50.836;4.330;2023-02-15T07:17:42;109.15;;;57.40;;
23119;SDS011;11729;50.836;4.330;2023-02-15T07:20:15;103.80;;;57.28;;
23119;SDS011;11729;50.836;4.330;2023-02-15T07:22:43;111.22;;;56.58;;
23119;SDS011;11729;50.836;4.330;2023-02-15T07:25:10;107.25;;;58.47;;
23119;SDS011;11729;50.836;4.330;2023-02-15T07:27:37;119.30;;;58.75;;
23119;SDS011;11729;50.836;4.330;2023-02-15T07:30:03;112.15;;;56.55;;
23119;SDS011;11729;50.836;4.330;2023-02-15T07:32:31;115.13;;;58.40;;
23119;SDS011;11729;50.836;4.330;2023-02-15T07:34:58;108.13;;;59.53;;
23119;SDS011;11729;50.836;4.330;2023-02-15T07:37:25;113.47;;;56.83;;
23119;SDS011;11729;50.836;4.330;2023-02-15T07:39:51;108.88;;;56.00;;
23119;SDS011;11729;50.836;4.330;2023-02-15T07:42:16;110.50;;;57.55;;
23119;SDS011;11729;50.836;4.330;2023-02-15T07:44:44;107.88;;;54.53;;
23119;SDS011;11729;50.836;4.330;2023-02-15T07:47:10;98.97;;;54.20;;
23119;SDS011;11729;50.836;4.330;2023-02-15T07:49:36;104.15;;;54.45;;
23119;SDS011;11729;50.836;4.330;2023-02-15T07:52:03;99.05;;;51.13;;
23119;SDS011;11729;50.836;4.330;2023-02-15T07:54:29;105.18;;;53.10;;
23119;SDS011;11729;50.836;4.330;2023-02-15T07:56:55;95.22;;;52.75;;
23119;SDS011;11729;50.836;4.330;2023-02-15T07:59:20;108.53;;;52.65;;
23119;SDS011;11729;50.836;4.330;2023-02-15T08:01:46;109.50;;;53.00;;
23119;SDS011;11729;50.836;4.330;2023-02-15T08:04:12;107.57;;;52.58;;
23119;SDS011;11729;50.836;4.330;2023-02-15T08:06:38;100.38;;;53.92;;
23119;SDS011;11729;50.836;4.330;2023-02-15T08:09:07;108.53;;;53.35;;
23119;SDS011;11729;50.836;4.330;2023-02-15T08:11:34;120.28;;;56.22;;
23119;SDS011;11729;50.836;4.330;2023-02-15T08:16:42;98.03;;;52.25;;
23119;SDS011;11729;50.836;4.330;2023-02-15T08:19:09;94.93;;;50.47;;
23119;SDS011;11729;50.836;4.330;2023-02-15T08:24:04;94.22;;;46.95;;
23119;SDS011;11729;50.836;4.330;2023-02-15T08:26:31;90.05;;;45.90;;
23119;SDS011;11729;50.836;4.330;2023-02-15T08:28:57;78.85;;;43.15;;
23119;SDS011;11729;50.836;4.330;2023-02-15T08:31:24;81.80;;;43.90;;
23119;SDS011;11729;50.836;4.330;2023-02-15T08:33:51;79.28;;;41.47;;
23119;SDS011;11729;50.836;4.330;2023-02-15T08:36:19;72.30;;;40.97;;
23119;SDS011;11729;50.836;4.330;2023-02-15T08:38:47;67.32;;;39.95;;
23119;SDS011;11729;50.836;4.330;2023-02-15T08:43:44;77.93;;;37.88;;
23119;SDS011;11729;50.836;4.330;2023-02-15T08:46:11;72.03;;;39.83;;
23119;SDS011;11729;50.836;4.330;2023-02-15T08:48:38;73.95;;;37.92;;
23119;SDS011;11729;50.836;4.330;2023-02-15T08:51:05;64.05;;;36.10;;
23119;SDS011;11729;50.836;4.330;2023-02-15T08:53:35;74.00;;;37.28;;
23119;SDS011;11729;50.836;4.330;2023-02-15T08:56:02;63.78;;;36.33;;
23119;SDS011;11729;50.836;4.330;2023-02-15T08:58:29;68.13;;;38.58;;
23119;SDS011;11729;50.836;4.330;2023-02-15T09:00:55;66.57;;;37.33;;
23119;SDS011;11729;50.836;4.330;2023-02-15T09:03:22;73.78;;;37.30;;
23119;SDS011;11729;50.836;4.330;2023-02-15T09:05:48;71.93;;;38.92;;
23119;SDS011;11729;50.836;4.330;2023-02-15T09:08:14;77.03;;;38.40;;
23119;SDS011;11729;50.836;4.330;2023-02-15T09:10:40;64.75;;;38.72;;
23119;SDS011;11729;50.836;4.330;2023-02-15T09:13:05;68.20;;;38.33;;
23119;SDS011;11729;50.836;4.330;2023-02-15T09:15:31;67.30;;;37.75;;
23119;SDS011;11729;50.836;4.330;2023-02-15T09:17:58;65.15;;;38.30;;
23119;SDS011;11729;50.836;4.330;2023-02-15T09:20:27;66.70;;;38.10;;
23119;SDS011;11729;50.836;4.330;2023-02-15T09:22:53;61.70;;;38.17;;
23119;SDS011;11729;50.836;4.330;2023-02-15T09:25:19;70.88;;;38.85;;
23119;SDS011;11729;50.836;4.330;2023-02-15T09:27:45;68.70;;;36.88;;
23119;SDS011;11729;50.836;4.330;2023-02-15T09:30:12;59.25;;;36.50;;
23119;SDS011;11729;50.836;4.330;2023-02-15T09:32:38;62.45;;;37.75;;
23119;SDS011;11729;50.836;4.330;2023-02-15T09:35:04;66.28;;;36.72;;
23119;SDS011;11729;50.836;4.330;2023-02-15T09:37:30;66.65;;;37.85;;
23119;SDS011;11729;50.836;4.330;2023-02-15T09:39:56;67.38;;;36.58;;
23119;SDS011;11729;50.836;4.330;2023-02-15T09:48:10;64.18;;;36.55;;
23119;SDS011;11729;50.836;4.330;2023-02-15T09:50:47;62.30;;;37.22;;
23119;SDS011;11729;50.836;4.330;2023-02-15T09:53:42;64.05;;;36.33;;
23119;SDS011;11729;50.836;4.330;2023-02-15T10:16:00;61.22;;;37.00;;
23119;SDS011;11729;50.836;4.330;2023-02-15T10:24:52;61.70;;;35.15;;
23119;SDS011;11729;50.836;4.330;2023-02-15T10:27:41;50.65;;;32.97;;
23119;SDS011;11729;50.836;4.330;2023-02-15T10:30:13;58.08;;;32.58;;
23119;SDS011;11729;50.836;4.330;2023-02-15T10:46:32;48.55;;;29.52;;
23119;SDS011;11729;50.836;4.330;2023-02-15T10:54:36;50.28;;;29.70;;
23119;SDS011;11729;50.836;4.330;2023-02-15T10:59:50;54.35;;;30.80;;
23119;SDS011;11729;50.836;4.330;2023-02-15T11:03:09;58.40;;;30.05;;
23119;SDS011;11729;50.836;4.330;2023-02-15T11:08:21;50.85;;;28.98;;
23119;SDS011;11729;50.836;4.330;2023-02-15T11:10:52;55.90;;;29.88;;
23119;SDS011;11729;50.836;4.330;2023-02-15T11:13:23;44.58;;;28.23;;
23119;SDS011;11729;50.836;4.330;2023-02-15T11:18:27;46.78;;;28.67;;
23119;SDS011;11729;50.836;4.330;2023-02-15T11:23:48;47.58;;;28.85;;
23119;SDS011;11729;50.836;4.330;2023-02-15T11:26:16;45.92;;;28.80;;
23119;SDS011;11729;50.836;4.330;2023-02-15T11:29:07;49.08;;;30.08;;
23119;SDS011;11729;50.836;4.330;2023-02-15T11:34:52;52.65;;;30.40;;
23119;SDS011;11729;50.836;4.330;2023-02-15T11:37:23;45.53;;;28.35;;
23119;SDS011;11729;50.836;4.330;2023-02-15T11:39:54;41.72;;;27.77;;
23119;SDS011;11729;50.836;4.330;2023-02-15T11:42:20;48.83;;;30.02;;
23119;SDS011;11729;50.836;4.330;2023-02-15T11:47:38;41.88;;;29.85;;
23119;SDS011;11729;50.836;4.330;2023-02-15T11:50:04;46.28;;;31.33;;
23119;SDS011;11729;50.836;4.330;2023-02-15T11:52:30;47.78;;;30.15;;
23119;SDS011;11729;50.836;4.330;2023-02-15T11:54:57;42.65;;;30.45;;
23119;SDS011;11729;50.836;4.330;2023-02-15T12:00:02;43.85;;;30.63;;
23119;SDS011;11729;50.836;4.330;2023-02-15T12:02:32;45.25;;;31.90;;
23119;SDS011;11729;50.836;4.330;2023-02-15T12:05:12;50.50;;;32.35;;
23119;SDS011;11729;50.836;4.330;2023-02-15T12:07:45;46.58;;;31.67;;
23119;SDS011;11729;50.836;4.330;2023-02-15T12:10:19;53.67;;;34.17;;
23119;SDS011;11729;50.836;4.330;2023-02-15T12:13:07;44.13;;;33.28;;
23119;SDS011;11729;50.836;4.330;2023-02-15T12:15:42;47.05;;;33.28;;
23119;SDS011;11729;50.836;4.330;2023-02-15T12:18:43;49.38;;;33.47;;
23119;SDS011;11729;50.836;4.330;2023-02-15T12:21:03;50.10;;;33.17;;
23119;SDS011;11729;50.836;4.330;2023-02-15T12:23:40;52.70;;;33.47;;
23119;SDS011;11729;50.836;4.330;2023-02-15T12:26:13;53.80;;;35.95;;
23119;SDS011;11729;50.836;4.330;2023-02-15T12:28:40;54.45;;;34.88;;
23119;SDS011;11729;50.836;4.330;2023-02-15T12:31:17;51.17;;;34.35;;
23119;SDS011;11729;50.836;4.330;2023-02-15T12:33:46;57.33;;;34.53;;
23119;SDS011;11729;50.836;4.330;2023-02-15T12:36:15;51.20;;;34.13;;
23119;SDS011;11729;50.836;4.330;2023-02-15T12:39:09;51.42;;;34.83;;
23119;SDS011;11729;50.836;4.330;2023-02-15T12:49:27;54.53;;;32.63;;
23119;SDS011;11729;50.836;4.330;2023-02-15T12:52:06;51.72;;;32.08;;
23119;SDS011;11729;50.836;4.330;2023-02-15T12:54:46;54.88;;;33.70;;
23119;SDS011;11729;50.836;4.330;2023-02-15T12:59:52;53.03;;;33.50;;
23119;SDS011;11729;50.836;4.330;2023-02-15T13:02:27;49.55;;;32.70;;
23119;SDS011;11729;50.836;4.330;2023-02-15T13:05:18;52.75;;;33.78;;
23119;SDS011;11729;50.836;4.330;2023-02-15T13:08:01;57.53;;;34.08;;
23119;SDS011;11729;50.836;4.330;2023-02-15T13:10:39;47.35;;;32.63;;
23119;SDS011;11729;50.836;4.330;2023-02-15T13:13:22;49.15;;;33.33;;
23119;SDS011;11729;50.836;4.330;2023-02-15T13:15:53;56.00;;;34.17;;
23119;SDS011;11729;50.836;4.330;2023-02-15T13:18:45;57.17;;;36.17;;
23119;SDS011;11729;50.836;4.330;2023-02-15T13:21:16;47.97;;;33.95;;
23119;SDS011;11729;50.836;4.330;2023-02-15T13:23:51;50.90;;;33.55;;
23119;SDS011;11729;50.836;4.330;2023-02-15T13:26:22;52.13;;;33.97;;
23119;SDS011;11729;50.836;4.330;2023-02-15T13:28:55;53.05;;;34.08;;
23119;SDS011;11729;50.836;4.330;2023-02-15T13:31:24;54.78;;;34.53;;
23119;SDS011;11729;50.836;4.330;2023-02-15T13:34:35;52.97;;;34.67;;
23119;SDS011;11729;50.836;4.330;2023-02-15T13:37:01;51.22;;;34.35;;
23119;SDS011;11729;50.836;4.330;2023-02-15T13:39:58;49.00;;;34.58;;
23119;SDS011;11729;50.836;4.330;2023-02-15T13:42:35;50.38;;;34.95;;
23119;SDS011;11729;50.836;4.330;2023-02-15T13:51:00;59.30;;;36.97;;
23119;SDS011;11729;50.836;4.330;2023-02-15T13:53:47;54.30;;;34.43;;
23119;SDS011;11729;50.836;4.330;2023-02-15T14:01:56;58.37;;;36.43;;
23119;SDS011;11729;50.836;4.330;2023-02-15T14:10:21;56.33;;;36.90;;
23119;SDS011;11729;50.836;4.330;2023-02-15T14:26:03;61.15;;;40.33;;
23119;SDS011;11729;50.836;4.330;2023-02-15T14:31:21;62.55;;;39.47;;
23119;SDS011;11729;50.836;4.330;2023-02-15T14:33:56;59.38;;;40.10;;
23119;SDS011;11729;50.836;4.330;2023-02-15T14:36:23;64.78;;;41.05;;
23119;SDS011;11729;50.836;4.330;2023-02-15T14:47:39;61.60;;;41.45;;
23119;SDS011;11729;50.836;4.330;2023-02-15T14:53:16;71.45;;;42.67;;
23119;SDS011;11729;50.836;4.330;2023-02-15T14:55:42;69.20;;;42.08;;
23119;SDS011;11729;50.836;4.330;2023-02-15T14:58:11;68.47;;;43.67;;
23119;SDS011;11729;50.836;4.330;2023-02-15T15:00:38;73.72;;;43.58;;
23119;SDS011;11729;50.836;4.330;2023-02-15T15:03:12;74.82;;;46.15;;
23119;SDS011;11729;50.836;4.330;2023-02-15T15:05:47;75.75;;;45.83;;
23119;SDS011;11729;50.836;4.330;2023-02-15T15:08:27;73.03;;;46.60;;
23119;SDS011;11729;50.836;4.330;2023-02-15T15:10:57;75.93;;;46.88;;
23119;SDS011;11729;50.836;4.330;2023-02-15T15:13:53;78.03;;;46.85;;
23119;SDS011;11729;50.836;4.330;2023-02-15T15:19:09;69.47;;;45.97;;
23119;SDS011;11729;50.836;4.330;2023-02-15T15:21:55;66.00;;;42.90;;
23119;SDS011;11729;50.836;4.330;2023-02-15T15:32:38;64.78;;;42.13;;
23119;SDS011;11729;50.836;4.330;2023-02-15T15:38:27;70.30;;;42.45;;
23119;SDS011;11729;50.836;4.330;2023-02-15T15:41:07;68.10;;;42.38;;
23119;SDS011;11729;50.836;4.330;2023-02-15T15:49:23;72.65;;;42.00;;
23119;SDS011;11729;50.836;4.330;2023-02-15T15:51:54;64.47;;;42.30;;
23119;SDS011;11729;50.836;4.330;2023-02-15T15:54:20;69.88;;;41.30;;
23119;SDS011;11729;50.836;4.330;2023-02-15T15:56:52;66.15;;;42.13;;
23119;SDS011;11729;50.836;4.330;2023-02-15T15:59:23;66.35;;;41.92;;
23119;SDS011;11729;50.836;4.330;2023-02-15T16:01:52;68.15;;;42.25;;
23119;SDS011;11729;50.836;4.330;2023-02-15T16:06:51;67.13;;;42.05;;
23119;SDS011;11729;50.836;4.330;2023-02-15T16:09:18;65.55;;;40.72;;
23119;SDS011;11729;50.836;4.330;2023-02-15T16:11:49;66.32;;;41.45;;
23119;SDS011;11729;50.836;4.330;2023-02-15T16:17:03;66.35;;;41.97;;
23119;SDS011;11729;50.836;4.330;2023-02-15T16:19:32;72.38;;;43.92;;
23119;SDS011;11729;50.836;4.330;2023-02-15T16:22:02;76.05;;;43.50;;
23119;SDS011;11729;50.836;4.330;2023-02-15T16:27:15;73.95;;;42.67;;
23119;SDS011;11729;50.836;4.330;2023-02-15T16:29:42;65.78;;;42.30;;
23119;SDS011;11729;50.836;4.330;2023-02-15T16:32:18;68.07;;;43.80;;
23119;SDS011;11729;50.836;4.330;2023-02-15T16:34:58;70.80;;;43.70;;
23119;SDS011;11729;50.836;4.330;2023-02-15T16:37:31;78.13;;;45.45;;
23119;SDS011;11729;50.836;4.330;2023-02-15T16:39:58;71.53;;;43.47;;
23119;SDS011;11729;50.836;4.330;2023-02-15T16:42:24;70.88;;;45.45;;
23119;SDS011;11729;50.836;4.330;2023-02-15T16:44:51;79.80;;;45.40;;
23119;SDS011;11729;50.836;4.330;2023-02-15T16:47:26;85.38;;;45.17;;
23119;SDS011;11729;50.836;4.330;2023-02-15T16:49:55;79.78;;;45.58;;
23119;SDS011;11729;50.836;4.330;2023-02-15T16:52:24;69.95;;;44.40;;
23119;SDS011;11729;50.836;4.330;2023-02-15T16:54:53;75.43;;;46.10;;
23119;SDS011;11729;50.836;4.330;2023-02-15T16:57:26;75.78;;;47.45;;
23119;SDS011;11729;50.836;4.330;2023-02-15T16:59:54;81.85;;;47.53;;
23119;SDS011;11729;50.836;4.330;2023-02-15T17:02:27;76.00;;;47.40;;
23119;SDS011;11729;50.836;4.330;2023-02-15T17:05:13;78.20;;;47.70;;
23119;SDS011;11729;50.836;4.330;2023-02-15T17:07:48;76.43;;;47.03;;
23119;SDS011;11729;50.836;4.330;2023-02-15T17:13:25;74.45;;;46.47;;
23119;SDS011;11729;50.836;4.330;2023-02-15T17:18:46;85.07;;;47.17;;
23119;SDS011;11729;50.836;4.330;2023-02-15T17:21:20;70.25;;;44.20;;
23119;SDS011;11729;50.836;4.330;2023-02-15T17:23:56;70.28;;;44.85;;
23119;SDS011;11729;50.836;4.330;2023-02-15T17:26:29;70.75;;;44.58;;
23119;SDS011;11729;50.836;4.330;2023-02-15T17:28:58;71.13;;;44.65;;
23119;SDS011;11729;50.836;4.330;2023-02-15T17:31:27;73.03;;;45.38;;
23119;SDS011;11729;50.836;4.330;2023-02-15T17:33:57;79.45;;;45.85;;
23119;SDS011;11729;50.836;4.330;2023-02-15T17:36:24;74.18;;;45.72;;
23119;SDS011;11729;50.836;4.330;2023-02-15T17:41:24;68.88;;;45.58;;
23119;SDS011;11729;50.836;4.330;2023-02-15T17:43:50;71.57;;;45.40;;
23119;SDS011;11729;50.836;4.330;2023-02-15T17:46:16;76.50;;;45.35;;
23119;SDS011;11729;50.836;4.330;2023-02-15T17:48:45;72.28;;;45.22;;
23119;SDS011;11729;50.836;4.330;2023-02-15T17:51:12;73.72;;;45.80;;
23119;SDS011;11729;50.836;4.330;2023-02-15T17:53:39;68.53;;;45.90;;
23119;SDS011;11729;50.836;4.330;2023-02-15T17:56:06;78.95;;;46.53;;
23119;SDS011;11729;50.836;4.330;2023-02-15T17:58:37;73.82;;;45.60;;
23119;SDS011;11729;50.836;4.330;2023-02-15T18:01:06;76.75;;;46.13;;
23119;SDS011;11729;50.836;4.330;2023-02-15T18:03:55;75.32;;;46.47;;